Tropical Cyclones
[Index]
Main Index Home Page Stock Weather Photos Extreme Storms Discussion Storm News and Storm Chasing Reports Tropical Cyclones / Hurricanes / Typhoons Weather Data and Links Wild Fires / Bushfires Weather Observation Techniques Weather Picture Catalogue Tornado Pictures and Reports Stock Video Footage and DVDs for sale
Season 2012-2013 Tropical Cyclone BOLDWIN Track Map
Season 2012-2013 Summaries (Operational Data): [AU] [SIO] [SPAC] [SH]
<<- Previous TC | 2012-2013 Season | Next TC ->>

click for intensity scale information  Lat/long Grid: Show Hide

 Date Labels: Show Hide

Operational Tropical Cyclone Data : JTWC Advisories

Name: BOLDWIN
Number: 1302

16 Nov 2012 00:00 UTC to 26 Nov 2012 00:00 UTC

    date/time    lat    long     hPa   cat  kts
2012-11-16 00    5.2    90.1    1010         15          
2012-11-16 06    5.4    90.4    1010         15          
2012-11-16 12    5.8    90.6    1010         15          
2012-11-16 18    6.0    91.7    1010         15          
2012-11-17 00    4.8    88.7    1010         15          
2012-11-17 06    5.0    88.5    1010         15          
2012-11-17 12    5.2    88.3    1010         15          
2012-11-17 18    4.8    88.0    1010         15          
2012-11-18 00    4.9    87.9    1010         15          
2012-11-18 06    6.7    87.0    1010         15          
2012-11-18 12    6.8    86.8    1010         15          
2012-11-18 18    6.9    86.6    1010         15          
2012-11-19 00    7.1    86.4                 15          
2012-11-19 06    7.0    86.4    1010         15          
2012-11-19 12    7.8    85.2    1010         15          
2012-11-19 18    8.6    84.0    1010         15          
2012-11-20 00    9.4    82.8                 15          
2012-11-20 06    9.5    83.5                 15          
2012-11-20 12    9.1    83.7                 15          
2012-11-21 00    9.3    84.0    1010         15          
2012-11-21 06    9.7    83.1    1010         15          
2012-11-21 12   10.0    82.2    1010         15          
2012-11-21 18   10.1    81.7    1010         15          
2012-11-22 00   10.1    81.3    1010         15          
2012-11-22 06   10.5    80.8    1007         20          
2012-11-22 12   11.3    80.0    1004         25          
2012-11-22 18   11.7    79.1    1007         20          
2012-11-23 00   11.7    78.4    1004         25          
2012-11-23 06   11.7    77.9    1004         25          
2012-11-23 12   11.9    77.5    1004         25          
2012-11-23 18   12.4    77.0    1000         30          
2012-11-24 00   13.0    76.4     996    1    35          
2012-11-24 06   13.6    75.8     989    1    45          
2012-11-24 12   13.9    75.3     982    2    55          
2012-11-24 18   14.2    74.8     982    2    55          
2012-11-25 00   14.4    74.2     985    2    50          
2012-11-25 06   14.6    73.4     993    1    40          
2012-11-25 12   14.9    72.5     996    1    35          
2012-11-25 18   15.2    71.6            1    35          
2012-11-26 00   15.3    73.3    1006         25          
Winds are 10-min average.

Tropical cyclone tracks developed by Michael Bath using operational warnings and advisories and Google Maps.


[Australian Severe Weather index] [Copyright Notice] [Email Contacts] [Search This Site] [Privacy Policy]
Document: tropical_cyclone_boldwin.htm Updated: 2 May 2017